createdAt,value
2023-10-22T00:00:05.387Z,0.20
2023-10-22T00:02:38.360Z,0.05
2023-10-22T00:05:06.124Z,0.20
2023-10-22T00:07:36.284Z,0.13
2023-10-22T00:10:03.214Z,0.10
2023-10-22T00:12:29.878Z,0.30
2023-10-22T00:14:56.670Z,0.10
2023-10-22T00:17:23.516Z,0.03
2023-10-22T00:19:50.179Z,0.10
2023-10-22T00:22:16.923Z,0.05
2023-10-22T00:24:43.568Z,0.10
2023-10-22T00:27:10.235Z,0.10
2023-10-22T00:29:36.907Z,0.03
2023-10-22T00:32:03.742Z,0.10
2023-10-22T00:34:31.101Z,0.10
2023-10-22T00:36:57.898Z,0.20
2023-10-22T00:39:24.594Z,0.20
2023-10-22T00:41:51.381Z,0.00
2023-10-22T00:44:18.122Z,0.10
2023-10-22T00:46:47.170Z,0.03
2023-10-22T00:49:16.282Z,0.00
2023-10-22T00:51:44.136Z,0.10
2023-10-22T00:54:13.532Z,0.05
2023-10-22T00:56:40.618Z,0.10
2023-10-22T00:59:08.027Z,0.10
2023-10-22T01:01:34.839Z,0.05
2023-10-22T01:04:03.342Z,0.17
2023-10-22T01:06:30.032Z,0.05
2023-10-22T01:08:57.295Z,0.00
2023-10-22T01:11:23.966Z,0.20
2023-10-22T01:13:50.700Z,0.20
2023-10-22T01:16:17.360Z,0.30
2023-10-22T01:18:44.320Z,0.10
2023-10-22T01:21:11.510Z,0.10
2023-10-22T01:23:39.024Z,0.13
2023-10-22T01:26:07.115Z,0.20
2023-10-22T01:28:37.571Z,0.10
2023-10-22T01:31:04.573Z,0.10
2023-10-22T01:33:31.415Z,0.10
2023-10-22T01:35:58.206Z,0.10
2023-10-22T01:38:24.985Z,0.20
2023-10-22T01:40:51.611Z,0.13
2023-10-22T01:43:18.327Z,0.05
2023-10-22T01:45:46.317Z,0.13
2023-10-22T01:48:13.292Z,0.10
2023-10-22T01:50:40.144Z,0.10
2023-10-22T01:53:06.837Z,0.20
2023-10-22T01:55:34.311Z,0.10
2023-10-22T01:58:00.904Z,0.10
2023-10-22T02:00:27.622Z,0.10
2023-10-22T02:02:54.630Z,0.08
2023-10-22T02:05:21.494Z,0.20
2023-10-22T02:07:53.876Z,0.10
2023-10-22T02:10:23.412Z,0.50
2023-10-22T02:12:50.103Z,0.08
2023-10-22T02:15:17.744Z,0.00
2023-10-22T02:17:44.479Z,0.10
2023-10-22T02:20:11.889Z,0.00
2023-10-22T02:22:39.152Z,0.10
2023-10-22T02:25:07.651Z,0.40
2023-10-22T02:27:34.674Z,0.10
2023-10-22T02:30:01.547Z,0.10
2023-10-22T02:32:28.214Z,0.10
2023-10-22T02:34:55.118Z,0.08
2023-10-22T02:37:21.876Z,0.10
2023-10-22T02:39:48.577Z,0.30
2023-10-22T02:42:15.946Z,0.10
2023-10-22T02:44:42.725Z,0.20
2023-10-22T02:47:10.161Z,0.30
2023-10-22T02:49:36.862Z,0.10
2023-10-22T02:52:04.087Z,0.28
2023-10-22T02:54:30.702Z,0.22
2023-10-22T02:56:57.519Z,0.10
2023-10-22T02:59:24.368Z,0.10
2023-10-22T03:01:51.276Z,0.10
2023-10-22T03:04:18.012Z,0.25
2023-10-22T03:06:45.723Z,0.08
2023-10-22T03:09:12.705Z,0.13
2023-10-22T03:11:39.511Z,0.10
2023-10-22T03:14:06.284Z,0.40
2023-10-22T03:16:33.087Z,0.00
2023-10-22T03:18:59.956Z,0.10
2023-10-22T03:21:26.818Z,0.15
2023-10-22T03:23:53.510Z,0.30
2023-10-22T03:26:20.366Z,0.22
2023-10-22T03:28:48.353Z,0.22
2023-10-22T03:31:15.077Z,0.10
2023-10-22T03:33:41.837Z,0.00
2023-10-22T03:36:10.648Z,0.15
2023-10-22T03:38:37.530Z,0.00
2023-10-22T03:41:05.960Z,0.10
2023-10-22T03:43:33.574Z,0.10
2023-10-22T03:46:01.302Z,0.28
2023-10-22T03:48:29.425Z,0.22
2023-10-22T03:50:56.915Z,0.10
2023-10-22T03:53:23.690Z,0.03
2023-10-22T03:55:51.007Z,0.17
2023-10-22T03:58:17.750Z,0.20
2023-10-22T04:00:44.573Z,0.20
2023-10-22T04:03:11.367Z,0.10
2023-10-22T04:05:38.160Z,0.08
2023-10-22T04:08:05.108Z,0.17
2023-10-22T04:10:31.792Z,0.10
2023-10-22T04:12:58.477Z,0.30
2023-10-22T04:15:25.084Z,0.08
2023-10-22T04:17:51.824Z,0.10
2023-10-22T04:20:18.512Z,0.10
2023-10-22T04:22:45.913Z,0.10
2023-10-22T04:25:14.505Z,0.05
2023-10-22T04:27:41.461Z,0.20
2023-10-22T04:30:09.253Z,0.20
2023-10-22T04:32:36.524Z,0.20
2023-10-22T04:35:03.838Z,0.10
2023-10-22T04:37:30.542Z,0.38
2023-10-22T04:39:59.575Z,0.10
2023-10-22T04:42:29.024Z,0.20
2023-10-22T04:44:56.407Z,0.20
2023-10-22T04:47:23.311Z,0.10
2023-10-22T04:49:54.406Z,0.00
2023-10-22T04:52:21.891Z,0.32
2023-10-22T04:54:48.554Z,0.15
2023-10-22T04:57:15.358Z,0.10
2023-10-22T04:59:42.065Z,0.05
2023-10-22T05:02:08.730Z,0.20
2023-10-22T05:04:35.512Z,0.20
2023-10-22T05:07:02.295Z,0.10
2023-10-22T05:09:28.899Z,0.20
2023-10-22T05:11:55.590Z,0.10
2023-10-22T05:14:22.364Z,0.25
2023-10-22T05:16:49.138Z,0.20
2023-10-22T05:19:15.739Z,0.15
2023-10-22T05:21:42.424Z,0.08
2023-10-22T05:24:09.333Z,0.10
2023-10-22T05:26:36.219Z,0.10
2023-10-22T05:29:02.882Z,0.20
2023-10-22T05:31:29.734Z,0.32
2023-10-22T05:33:56.371Z,0.20
2023-10-22T05:36:23.472Z,0.30
2023-10-22T05:38:51.050Z,0.20
2023-10-22T05:41:22.436Z,0.20
2023-10-22T05:43:53.244Z,0.10
2023-10-22T05:46:20.225Z,0.15
2023-10-22T05:48:47.061Z,0.22
2023-10-22T05:51:13.816Z,0.17
2023-10-22T05:53:40.545Z,0.20
2023-10-22T05:56:07.182Z,0.17
2023-10-22T05:58:33.925Z,0.10
2023-10-22T06:01:00.551Z,0.30
2023-10-22T06:03:27.250Z,0.10
2023-10-22T06:05:54.040Z,0.08
2023-10-22T06:08:20.737Z,0.10
2023-10-22T06:10:47.514Z,0.40
2023-10-22T06:13:14.270Z,0.13
2023-10-22T06:15:45.850Z,0.10
2023-10-22T06:18:13.396Z,0.28
2023-10-22T06:20:40.209Z,0.40
2023-10-22T06:23:07.240Z,0.25
2023-10-22T06:25:34.134Z,0.20
2023-10-22T06:28:01.637Z,0.10
2023-10-22T06:30:29.010Z,0.03
2023-10-22T06:32:57.829Z,0.10
2023-10-22T06:35:25.115Z,0.10
2023-10-22T06:37:52.384Z,0.00
2023-10-22T06:40:19.819Z,0.17
2023-10-22T06:42:46.466Z,0.40
2023-10-22T06:45:13.081Z,0.13
2023-10-22T06:47:40.804Z,0.20
2023-10-22T06:50:11.930Z,0.17
2023-10-22T06:52:39.457Z,0.15
2023-10-22T06:55:06.904Z,0.20
2023-10-22T06:57:33.661Z,0.20
2023-10-22T07:00:00.338Z,0.30
2023-10-22T07:02:27.521Z,0.13
2023-10-22T07:04:54.934Z,0.40
2023-10-22T07:07:22.766Z,0.20
2023-10-22T07:09:51.502Z,0.10
2023-10-22T07:12:18.829Z,0.25
2023-10-22T07:14:45.563Z,0.10
2023-10-22T07:17:12.227Z,0.30
2023-10-22T07:19:38.891Z,0.20
2023-10-22T07:22:05.560Z,0.38
2023-10-22T07:24:32.209Z,0.22
2023-10-22T07:26:58.850Z,0.32
2023-10-22T07:29:25.566Z,0.08
2023-10-22T07:31:52.424Z,0.28
2023-10-22T07:34:19.049Z,0.30
2023-10-22T07:36:45.801Z,0.20
2023-10-22T07:39:12.442Z,0.17
2023-10-22T07:41:39.300Z,0.17
2023-10-22T07:44:06.123Z,0.20
2023-10-22T07:46:32.853Z,0.20
2023-10-22T07:48:59.520Z,0.20
2023-10-22T07:51:26.227Z,0.10
2023-10-22T07:53:53.065Z,0.20
2023-10-22T07:56:19.713Z,0.20
2023-10-22T07:58:46.498Z,0.38
2023-10-22T08:01:13.271Z,0.30
2023-10-22T08:03:40.108Z,0.20
2023-10-22T08:06:07.155Z,0.30
2023-10-22T08:08:34.064Z,0.32
2023-10-22T08:11:03.541Z,0.43
2023-10-22T08:13:30.408Z,0.30
2023-10-22T08:15:57.586Z,0.25
2023-10-22T08:18:24.497Z,0.17
2023-10-22T08:20:51.247Z,0.40
2023-10-22T08:23:18.464Z,0.30
2023-10-22T08:25:51.934Z,0.20
2023-10-22T08:28:18.608Z,0.30
2023-10-22T08:30:49.190Z,0.30
2023-10-22T08:33:15.926Z,0.47
2023-10-22T08:35:43.188Z,0.30
2023-10-22T08:38:10.308Z,0.22
2023-10-22T08:40:40.580Z,0.20
2023-10-22T08:43:11.844Z,0.30
2023-10-22T08:45:38.584Z,0.20
2023-10-22T08:48:06.206Z,0.20
2023-10-22T08:50:34.131Z,0.20
2023-10-22T08:53:00.782Z,0.30
2023-10-22T08:55:30.117Z,0.40
2023-10-22T08:58:00.568Z,0.22
2023-10-22T09:00:30.090Z,0.60
2023-10-22T09:02:58.908Z,0.55
2023-10-22T09:05:25.588Z,0.30
2023-10-22T09:07:53.813Z,0.30
2023-10-22T09:10:27.849Z,0.30
2023-10-22T09:12:54.674Z,0.30
2023-10-22T09:15:21.655Z,0.20
2023-10-22T09:18:01.280Z,0.32
2023-10-22T09:20:28.162Z,0.35
2023-10-22T09:23:12.523Z,0.35
2023-10-22T09:25:39.854Z,0.50
2023-10-22T09:28:17.970Z,0.30
2023-10-22T09:30:44.767Z,0.28
2023-10-22T09:33:11.916Z,0.55
2023-10-22T09:35:39.050Z,0.50
2023-10-22T09:38:05.968Z,0.20
2023-10-22T09:40:33.603Z,0.52
2023-10-22T09:43:01.842Z,0.40
2023-10-22T09:45:29.724Z,0.20
2023-10-22T09:48:09.046Z,0.77
2023-10-22T09:50:45.689Z,0.38
2023-10-22T09:53:17.526Z,0.22
2023-10-22T09:55:49.147Z,0.32
2023-10-22T09:58:17.668Z,0.40
2023-10-22T10:00:51.152Z,0.40
2023-10-22T10:03:21.508Z,0.38
2023-10-22T10:05:48.998Z,0.30
2023-10-22T10:08:18.240Z,0.28
2023-10-22T10:10:46.225Z,0.50
2023-10-22T10:13:13.965Z,0.40
2023-10-22T10:15:40.683Z,0.38
2023-10-22T10:18:07.778Z,0.47
2023-10-22T10:20:34.879Z,0.67
2023-10-22T10:23:05.515Z,0.43
2023-10-22T10:25:34.017Z,0.50
2023-10-22T10:28:02.746Z,0.88
2023-10-22T10:30:29.474Z,0.30
2023-10-22T10:33:11.333Z,0.50
2023-10-22T10:35:49.537Z,0.50
2023-10-22T10:38:16.805Z,0.28
2023-10-22T10:40:46.107Z,0.25
2023-10-22T10:43:13.114Z,0.32
2023-10-22T10:45:40.119Z,1.10
2023-10-22T10:48:06.832Z,0.50
2023-10-22T10:50:33.536Z,0.20
2023-10-22T10:53:00.568Z,0.40
2023-10-22T10:55:27.184Z,0.30
2023-10-22T10:57:54.731Z,0.28
2023-10-22T11:00:23.892Z,0.40
2023-10-22T11:02:52.702Z,0.30
2023-10-22T11:05:38.001Z,0.40
2023-10-22T11:08:06.533Z,0.43
2023-10-22T11:10:33.426Z,0.30
2023-10-22T11:13:07.535Z,0.50
2023-10-22T11:15:36.172Z,0.80
2023-10-22T11:18:04.661Z,0.30
2023-10-22T11:20:31.617Z,0.20
2023-10-22T11:22:58.758Z,0.30
2023-10-22T11:25:27.450Z,0.30
2023-10-22T11:27:54.761Z,0.25
2023-10-22T11:30:38.896Z,0.20
2023-10-22T11:33:28.275Z,0.40
2023-10-22T11:35:55.133Z,0.40
2023-10-22T11:38:22.989Z,0.17
2023-10-22T11:40:55.063Z,0.38
2023-10-22T11:43:21.724Z,0.50
2023-10-22T11:45:56.276Z,0.20
2023-10-22T11:48:25.773Z,0.50
2023-10-22T11:50:57.378Z,0.40
2023-10-22T11:53:27.807Z,0.20
2023-10-22T11:55:54.486Z,0.20
2023-10-22T11:58:22.817Z,0.47
2023-10-22T12:00:50.047Z,0.30
2023-10-22T12:03:17.362Z,0.30
2023-10-22T12:05:44.372Z,0.55
2023-10-22T12:08:11.267Z,0.30
2023-10-22T12:10:38.074Z,0.65
2023-10-22T12:13:04.842Z,0.38
2023-10-22T12:15:31.488Z,0.40
2023-10-22T12:17:58.299Z,0.52
2023-10-22T12:20:25.168Z,0.50
2023-10-22T12:22:51.975Z,0.20
2023-10-22T12:25:18.881Z,0.50
2023-10-22T12:27:45.606Z,0.93
2023-10-22T12:30:12.524Z,0.38
2023-10-22T12:32:39.406Z,0.35
2023-10-22T12:35:06.408Z,0.55
2023-10-22T12:37:33.171Z,0.40
2023-10-22T12:39:59.873Z,0.40
2023-10-22T12:42:26.515Z,0.35
2023-10-22T12:44:53.421Z,0.30
2023-10-22T12:47:20.194Z,0.30
2023-10-22T12:49:47.172Z,0.55
2023-10-22T12:52:14.749Z,0.65
2023-10-22T12:54:43.292Z,0.20
2023-10-22T12:57:11.046Z,0.40
2023-10-22T12:59:37.757Z,0.40
2023-10-22T13:02:04.719Z,0.50
2023-10-22T13:04:31.670Z,0.35
2023-10-22T13:06:58.538Z,0.73
2023-10-22T13:09:25.382Z,0.52
2023-10-22T13:11:52.085Z,0.57
2023-10-22T13:14:22.903Z,0.50
2023-10-22T13:16:49.859Z,0.60
2023-10-22T13:19:16.914Z,0.30
2023-10-22T13:21:43.600Z,0.65
2023-10-22T13:24:10.415Z,0.30
2023-10-22T13:26:37.114Z,0.35
2023-10-22T13:29:03.910Z,0.50
2023-10-22T13:31:30.630Z,0.32
2023-10-22T13:33:57.310Z,0.70
2023-10-22T13:36:23.998Z,0.38
2023-10-22T13:38:50.677Z,0.60
2023-10-22T13:41:17.352Z,0.30
2023-10-22T13:43:44.145Z,0.40
2023-10-22T13:46:10.801Z,0.20
2023-10-22T13:48:37.441Z,1.13
2023-10-22T13:51:07.230Z,0.30
2023-10-22T13:53:33.923Z,0.30
2023-10-22T13:56:00.929Z,0.40
2023-10-22T13:58:29.715Z,0.30
2023-10-22T14:00:56.638Z,0.30
2023-10-22T14:03:23.423Z,0.30
2023-10-22T14:05:51.431Z,0.60
2023-10-22T14:08:19.190Z,0.32
2023-10-22T14:10:47.488Z,0.50
2023-10-22T14:13:14.203Z,0.73
2023-10-22T14:15:40.982Z,0.30
2023-10-22T14:18:07.826Z,0.60
2023-10-22T14:20:34.522Z,1.17
2023-10-22T14:23:01.235Z,2.38
2023-10-22T14:25:27.975Z,2.38
2023-10-22T14:27:54.707Z,1.95
2023-10-22T14:30:21.521Z,2.78
2023-10-22T14:32:48.249Z,1.40
2023-10-22T14:35:14.924Z,1.33
2023-10-22T14:37:41.641Z,1.50
2023-10-22T14:40:10.294Z,0.57
2023-10-22T14:42:36.973Z,0.90
2023-10-22T14:45:05.340Z,0.40
2023-10-22T14:47:32.251Z,0.75
2023-10-22T14:49:58.934Z,0.50
2023-10-22T14:52:25.576Z,1.05
2023-10-22T14:54:52.267Z,0.30
2023-10-22T14:57:19.130Z,0.65
2023-10-22T14:59:45.922Z,0.40
2023-10-22T15:02:12.545Z,0.85
2023-10-22T15:04:39.384Z,0.70
2023-10-22T15:07:06.270Z,0.70
2023-10-22T15:09:32.941Z,0.70
2023-10-22T15:11:59.749Z,0.30
2023-10-22T15:14:26.401Z,0.40
2023-10-22T15:16:53.048Z,0.80
2023-10-22T15:19:19.792Z,0.52
2023-10-22T15:21:46.506Z,0.20
2023-10-22T15:24:13.180Z,0.63
2023-10-22T15:26:39.875Z,1.73
2023-10-22T15:29:06.521Z,0.70
2023-10-22T15:31:33.483Z,0.60
2023-10-22T15:34:00.234Z,0.50
2023-10-22T15:36:26.933Z,1.10
2023-10-22T15:38:53.662Z,1.15
2023-10-22T15:41:20.262Z,0.50
2023-10-22T15:43:46.972Z,0.60
2023-10-22T15:46:20.812Z,0.30
2023-10-22T15:48:48.361Z,0.38
2023-10-22T15:51:16.776Z,0.68
2023-10-22T15:53:43.928Z,0.40
2023-10-22T15:56:10.631Z,1.02
2023-10-22T15:58:37.434Z,1.35
2023-10-22T16:01:04.171Z,1.10
2023-10-22T16:03:30.914Z,0.73
2023-10-22T16:05:57.652Z,1.27
2023-10-22T16:08:24.341Z,2.15
2023-10-22T16:10:51.196Z,1.95
2023-10-22T16:13:17.878Z,3.05
2023-10-22T16:15:44.597Z,2.47
2023-10-22T16:18:11.469Z,1.98
2023-10-22T16:20:38.343Z,1.23
2023-10-22T16:23:05.111Z,1.08
2023-10-22T16:25:31.756Z,0.80
2023-10-22T16:27:58.391Z,1.30
2023-10-22T16:30:27.851Z,1.10
2023-10-22T16:32:54.642Z,0.93
2023-10-22T16:35:21.360Z,1.30
2023-10-22T16:37:47.960Z,1.05
2023-10-22T16:40:14.686Z,0.70
2023-10-22T16:42:41.429Z,0.85
2023-10-22T16:45:08.687Z,0.90
2023-10-22T16:47:35.411Z,1.00
2023-10-22T16:50:02.151Z,0.50
2023-10-22T16:52:28.764Z,0.57
2023-10-22T16:54:55.680Z,0.80
2023-10-22T16:57:22.520Z,0.50
2023-10-22T16:59:49.256Z,1.10
2023-10-22T17:02:16.078Z,0.60
2023-10-22T17:04:42.841Z,0.80
2023-10-22T17:07:09.556Z,0.95
2023-10-22T17:09:36.364Z,0.70
2023-10-22T17:12:03.611Z,0.35
2023-10-22T17:14:45.261Z,0.30
2023-10-22T17:17:16.993Z,0.38
2023-10-22T17:19:44.087Z,0.35
2023-10-22T17:22:10.876Z,0.27
2023-10-22T17:24:37.553Z,0.63
2023-10-22T17:27:04.388Z,0.35
2023-10-22T17:29:31.004Z,0.63
2023-10-22T17:31:57.668Z,0.85
2023-10-22T17:34:24.476Z,1.00
2023-10-22T17:36:51.177Z,0.88
2023-10-22T17:39:17.914Z,1.23
2023-10-22T17:41:44.627Z,1.20
2023-10-22T17:44:11.713Z,0.73
2023-10-22T17:46:38.480Z,1.02
2023-10-22T17:49:05.184Z,1.60
2023-10-22T17:51:31.839Z,1.00
2023-10-22T17:53:58.527Z,1.45
2023-10-22T17:56:25.129Z,1.67
2023-10-22T17:58:51.881Z,1.42
2023-10-22T18:01:18.628Z,1.70
2023-10-22T18:03:45.322Z,1.48
2023-10-22T18:06:12.008Z,1.42
2023-10-22T18:08:38.743Z,1.40
2023-10-22T18:11:06.094Z,1.83
2023-10-22T18:13:32.886Z,1.50
2023-10-22T18:15:59.592Z,3.03
2023-10-22T18:18:26.617Z,2.88
2023-10-22T18:20:53.512Z,2.55
2023-10-22T18:23:21.027Z,2.00
2023-10-22T18:25:59.039Z,1.60
2023-10-22T18:30:52.295Z,1.45
2023-10-22T18:33:19.002Z,1.45
2023-10-22T18:35:45.789Z,0.77
2023-10-22T18:38:12.422Z,1.00
2023-10-22T18:40:39.135Z,1.50
2023-10-22T18:43:05.818Z,1.63
2023-10-22T18:45:39.876Z,1.50
2023-10-22T18:48:06.555Z,1.60
2023-10-22T18:50:33.685Z,2.13
2023-10-22T18:53:00.750Z,2.13
2023-10-22T18:55:27.400Z,1.50
2023-10-22T18:57:54.243Z,1.75
2023-10-22T19:00:21.190Z,1.38
2023-10-22T19:02:48.015Z,1.40
2023-10-22T19:05:14.906Z,1.33
2023-10-22T19:07:41.503Z,1.60
2023-10-22T19:10:08.540Z,1.80
2023-10-22T19:12:35.227Z,1.58
2023-10-22T19:15:01.981Z,1.60
2023-10-22T19:17:28.636Z,1.60
2023-10-22T19:19:55.539Z,1.58
2023-10-22T19:22:22.240Z,2.05
2023-10-22T19:24:48.928Z,2.22
2023-10-22T19:27:16.071Z,2.00
2023-10-22T19:29:42.756Z,2.20
2023-10-22T19:32:09.457Z,1.27
2023-10-22T19:34:36.172Z,1.77
2023-10-22T19:37:03.044Z,1.60
2023-10-22T19:39:31.423Z,1.60
2023-10-22T19:41:58.177Z,1.10
2023-10-22T19:44:24.820Z,1.30
2023-10-22T19:46:51.528Z,2.10
2023-10-22T19:49:18.156Z,1.58
2023-10-22T19:51:44.911Z,1.42
2023-10-22T19:54:11.674Z,1.23
2023-10-22T19:56:38.681Z,1.20
2023-10-22T19:59:05.380Z,1.30
2023-10-22T20:01:32.042Z,1.40
2023-10-22T20:04:00.101Z,1.17
2023-10-22T20:06:26.901Z,1.40
2023-10-22T20:08:53.989Z,1.38
2023-10-22T20:11:21.166Z,1.60
2023-10-22T20:13:47.948Z,1.00
2023-10-22T20:16:23.365Z,1.50
2023-10-22T20:18:51.529Z,1.50
2023-10-22T20:23:45.795Z,0.90
2023-10-22T20:26:13.425Z,1.33
2023-10-22T20:28:44.805Z,1.00
2023-10-22T20:31:12.325Z,1.00
2023-10-22T20:33:40.840Z,0.90
2023-10-22T20:36:07.782Z,2.42
2023-10-22T20:38:34.830Z,1.10
2023-10-22T20:41:09.280Z,1.05
2023-10-22T20:43:36.314Z,1.48
2023-10-22T20:46:07.134Z,1.20
2023-10-22T20:48:36.020Z,0.88
2023-10-22T20:51:15.696Z,1.25
2023-10-22T20:53:47.164Z,1.63
2023-10-22T20:56:14.918Z,1.00
2023-10-22T20:58:42.008Z,1.15
2023-10-22T21:01:15.164Z,0.93
2023-10-22T21:03:44.242Z,1.27
2023-10-22T21:06:13.190Z,1.17
2023-10-22T21:08:39.965Z,1.27
2023-10-22T21:11:06.642Z,1.10
2023-10-22T21:13:33.344Z,0.90
2023-10-22T21:16:00.137Z,1.50
2023-10-22T21:18:27.003Z,1.20
2023-10-22T21:21:01.206Z,1.10
2023-10-22T21:23:28.799Z,0.90
2023-10-22T21:25:55.784Z,1.00
2023-10-22T21:28:22.783Z,0.82
2023-10-22T21:30:49.484Z,0.57
2023-10-22T21:33:16.588Z,0.50
2023-10-22T21:35:44.291Z,0.57
2023-10-22T21:38:11.037Z,0.60
2023-10-22T21:40:37.916Z,0.75
2023-10-22T21:43:04.818Z,0.80
2023-10-22T21:45:31.484Z,0.80
2023-10-22T21:47:58.167Z,0.95
2023-10-22T21:50:24.978Z,0.50
2023-10-22T21:52:52.035Z,0.40
2023-10-22T21:55:18.709Z,1.25
2023-10-22T21:57:49.770Z,0.45
2023-10-22T22:00:16.899Z,0.32
2023-10-22T22:02:43.701Z,0.40
2023-10-22T22:05:10.406Z,0.70
2023-10-22T22:07:37.048Z,0.77
2023-10-22T22:10:03.912Z,0.85
2023-10-22T22:12:30.617Z,0.65
2023-10-22T22:14:57.269Z,0.60
2023-10-22T22:17:24.020Z,0.60
2023-10-22T22:19:50.633Z,0.63
2023-10-22T22:22:17.229Z,0.60
2023-10-22T22:24:43.957Z,0.55
2023-10-22T22:27:10.619Z,0.55
2023-10-22T22:29:37.419Z,1.20
2023-10-22T22:32:04.263Z,0.45
2023-10-22T22:34:30.998Z,0.40
2023-10-22T22:36:57.687Z,0.60
2023-10-22T22:39:24.394Z,0.63
2023-10-22T22:41:51.178Z,1.08
2023-10-22T22:44:17.903Z,0.70
2023-10-22T22:46:44.642Z,0.40
2023-10-22T22:49:11.388Z,0.65
2023-10-22T22:51:38.320Z,0.60
2023-10-22T22:54:05.146Z,0.60
2023-10-22T22:56:31.827Z,0.60
2023-10-22T22:58:58.535Z,0.60
2023-10-22T23:01:25.316Z,0.85
2023-10-22T23:03:51.982Z,0.63
2023-10-22T23:06:19.233Z,0.52
2023-10-22T23:08:46.025Z,0.80
2023-10-22T23:11:13.192Z,0.70
2023-10-22T23:13:39.929Z,0.90
2023-10-22T23:16:06.742Z,0.47
2023-10-22T23:18:33.606Z,0.60
2023-10-22T23:21:00.574Z,0.88
2023-10-22T23:23:27.240Z,0.93
2023-10-22T23:25:53.896Z,0.95
2023-10-22T23:28:20.515Z,0.88
2023-10-22T23:30:50.348Z,0.80
2023-10-22T23:33:17.649Z,1.02
2023-10-22T23:35:44.320Z,0.57
2023-10-22T23:38:10.950Z,0.85
2023-10-22T23:40:37.615Z,1.08
2023-10-22T23:43:04.308Z,1.13
2023-10-22T23:45:30.974Z,1.65
2023-10-22T23:47:57.776Z,0.90
2023-10-22T23:50:24.704Z,0.77
2023-10-22T23:52:51.303Z,0.70
2023-10-22T23:55:18.084Z,1.05
2023-10-22T23:57:44.785Z,1.05
